Jamestown, ND

2:23 PM CST on February 08, 2016 (GMT -0600)
Jamestown Municipal | | Change Station
CLOSE
Current Station
Airport
Location: Jamestown,
Elevation: 1499 ft
Nearby Weather Stations

Elev 1499 ft 46.93 °N, 98.67 °W | Updated 27 minutes ago

Partly Cloudy
Partly Cloudy
24 °F
Feels Like 8 °F
N
25
Wind Variable Wind from NNW
Gusts 36 mph

Today
High -- | Low -- °F
--% Chance of Precip.
Yesterday
High -- | Low -- °F
Precip. -- in
Pressure 30.25 in
Visibility 10.0 miles
Clouds Few 2200 ft
Windchill 8 °F
Dew Point 13 °F
Humidity 62%
Rainfall 0.00 in
Snow Depth Not available.
7:50 AM 5:47 PM
New Moon, 0% visible
METAR KJMS 081956Z AUTO 34022G31KT 10SM FEW022 M04/M11 A3017 RMK AO2 PK WND 32032/1908 SLP241 T10441106
Pressure 30.25 in
Visibility 10.0 miles
Clouds Few 2200 ft
Windchill 8 °F
Dew Point 13 °F
Humidity 62%
Rainfall 0.00 in
Snow Depth Not available.
7:50 AM 5:47 PM
New Moon, 0% visible
METAR KJMS 081956Z AUTO 34022G31KT 10SM FEW022 M04/M11 A3017 RMK AO2 PK WND 32032/1908 SLP241 T10441106

10-Day Weather Forecast

Almanac

Astronomy

Feb. 08, 2016 Rise Set
Actual Time
Civil Twilight
Nautical Twilight
Astronomical Twilight
Moon
Length of Visible Light
Length of Day
Tomorrow will be .
, % of the Moon is Illuminated

Today's Extremes

State Highs State Lows

Community

WunderPhotos

Upload Photos

1,891,503 photos uploaded!

WunderBlog® & News

Nearby

Air Quality

  Air Quality AQ Index Pollutant
Not available.

Snow Depth

Station Depth Elevation

Earthquake Activity

City Distance Mag. Time & Date
Minimum magnitude displayed is 2.5.

Coastal Water Temperatures

Place Temperature

Stations

Nearby Weather Stations

Station Location Temp. Windchill Dew Point Humidity Wind Precip. Elev Updated Type
                   

Watches & Warnings

There are currently no watches in effect.